Time;durP1;ratioP1;P1;durP2;ratioP2;P2;SDS_P1;SDS_P2;PMS_P1;PMS_P2;Temp;Humidity;BMP_temperature;BMP_pressure;BME280_temperature;BME280_humidity;BME280_pressure;Samples;Min_cycle;Max_cycle;Signal;HPM_P1;HPM_P2
2020/12/03 00:00:50;;;;;;;38.07;17.57;;;-0.10;99.90;;;;;;4440964;32;20165;-78
2020/12/03 00:03:30;;;;;;;39.67;18.10;;;-0.10;99.90;;;;;;4440348;32;20530;-78
2020/12/03 00:06:07;;;;;;;39.57;17.13;;;-0.10;99.90;;;;;;4442323;32;20173;-78
2020/12/03 00:08:37;;;;;;;38.67;17.77;;;-0.10;99.90;;;;;;4429767;32;20188;-77
2020/12/03 00:11:04;;;;;;;40.73;17.97;;;0.00;99.90;;;;;;4442121;32;20185;-78
2020/12/03 00:13:32;;;;;;;40.13;18.13;;;0.00;99.90;;;;;;4440712;32;20205;-78
2020/12/03 00:16:00;;;;;;;38.23;17.83;;;0.00;99.90;;;;;;4440574;32;20161;-78
2020/12/03 00:18:30;;;;;;;40.63;18.77;;;0.00;99.90;;;;;;4441453;32;20184;-77
2020/12/03 00:20:58;;;;;;;41.00;18.77;;;0.00;99.90;;;;;;4440534;32;20164;-77
2020/12/03 00:23:24;;;;;;;39.60;18.70;;;-0.10;99.90;;;;;;4440560;32;20152;-77
2020/12/03 00:25:53;;;;;;;39.57;18.67;;;-0.10;99.90;;;;;;4441979;32;20146;-77
2020/12/03 00:28:19;;;;;;;41.43;18.53;;;-0.20;99.90;;;;;;4440222;32;20190;-77
2020/12/03 00:30:46;;;;;;;39.90;18.93;;;-0.20;99.90;;;;;;4440388;32;20170;-76
2020/12/03 00:33:17;;;;;;;44.47;19.13;;;-0.10;99.90;;;;;;4440426;32;20199;-76
2020/12/03 00:35:46;;;;;;;41.83;18.97;;;-0.10;99.90;;;;;;4441866;32;20173;-76
2020/12/03 00:38:13;;;;;;;41.90;18.97;;;-0.10;99.90;;;;;;4440150;32;20146;-78
2020/12/03 00:40:39;;;;;;;43.03;19.43;;;-0.10;99.90;;;;;;4441751;32;20203;-78
2020/12/03 00:43:06;;;;;;;39.33;19.07;;;0.00;99.90;;;;;;4440843;32;20173;-78
2020/12/03 00:45:32;;;;;;;44.13;19.00;;;0.00;99.90;;;;;;4440187;32;20226;-77
2020/12/03 00:47:59;;;;;;;46.77;18.63;;;0.00;99.90;;;;;;4440271;32;20181;-77
2020/12/03 00:50:25;;;;;;;44.90;19.17;;;0.10;99.90;;;;;;4439398;32;20150;-77
2020/12/03 00:52:51;;;;;;;41.73;17.87;;;0.00;99.90;;;;;;4439763;32;20146;-77
2020/12/03 00:55:18;;;;;;;40.97;18.40;;;-0.10;99.90;;;;;;4440023;32;20277;-78
2020/12/03 00:57:44;;;;;;;42.37;18.63;;;0.00;99.90;;;;;;4428201;32;20449;-78
2020/12/03 01:00:13;;;;;;;44.30;18.50;;;0.00;99.90;;;;;;4437305;32;20154;-77
2020/12/03 01:02:40;;;;;;;36.47;17.40;;;0.00;99.90;;;;;;4440042;32;20155;-76
2020/12/03 01:05:08;;;;;;;37.00;17.40;;;-0.10;99.90;;;;;;4439776;32;20211;-76
2020/12/03 01:07:35;;;;;;;38.77;17.83;;;-0.10;99.90;;;;;;4439836;32;20147;-76
2020/12/03 01:10:10;;;;;;;37.40;17.07;;;-0.10;99.90;;;;;;4439878;32;20146;-76
2020/12/03 01:12:37;;;;;;;37.77;16.63;;;0.00;99.90;;;;;;4428494;32;20149;-76
2020/12/03 01:15:05;;;;;;;39.27;16.83;;;-0.10;99.90;;;;;;4439895;32;20204;-76
2020/12/03 01:17:32;;;;;;;39.00;17.53;;;-0.10;99.90;;;;;;4439780;32;20151;-77
2020/12/03 01:19:58;;;;;;;41.07;16.83;;;0.00;99.90;;;;;;4439804;32;20142;-77
2020/12/03 01:22:25;;;;;;;41.73;17.27;;;0.10;99.90;;;;;;4439632;32;20514;-77
2020/12/03 01:24:51;;;;;;;35.23;16.60;;;0.10;99.90;;;;;;4439746;32;20150;-76
2020/12/03 01:27:17;;;;;;;39.53;17.00;;;0.20;99.90;;;;;;4440255;32;20176;-77
2020/12/03 01:29:45;;;;;;;35.03;16.77;;;0.20;99.90;;;;;;4441303;32;20176;-77
2020/12/03 01:32:11;;;;;;;33.97;16.47;;;0.20;99.90;;;;;;4441017;32;20427;-77
2020/12/03 01:34:37;;;;;;;34.90;16.50;;;0.30;99.90;;;;;;4439726;32;20552;-77
2020/12/03 01:37:04;;;;;;;36.10;16.93;;;0.20;99.90;;;;;;4439763;32;20178;-77
2020/12/03 01:39:30;;;;;;;37.67;17.37;;;0.20;99.90;;;;;;4439660;32;20154;-77
2020/12/03 01:41:57;;;;;;;36.53;17.60;;;0.20;99.90;;;;;;4439090;32;20191;-77
2020/12/03 01:44:47;;;;;;;35.20;16.70;;;0.20;99.90;;;;;;4439474;32;20174;-77
2020/12/03 01:47:43;;;;;;;34.27;16.40;;;0.10;99.90;;;;;;4441058;32;20234;-77
2020/12/03 01:50:09;;;;;;;33.87;16.07;;;0.10;99.90;;;;;;4407142;32;20259;-76
2020/12/03 01:52:36;;;;;;;35.63;15.57;;;0.10;99.90;;;;;;4406638;32;20426;-76
2020/12/03 01:55:02;;;;;;;34.77;16.23;;;0.10;99.90;;;;;;4407032;32;20181;-76
2020/12/03 01:57:44;;;;;;;32.47;15.67;;;0.20;99.90;;;;;;4407516;32;20221;-76
2020/12/03 02:00:14;;;;;;;32.27;15.03;;;0.10;99.90;;;;;;4407813;32;20222;-76
2020/12/03 02:02:46;;;;;;;30.33;14.70;;;0.20;99.90;;;;;;4408677;32;20208;-76
2020/12/03 02:05:22;;;;;;;34.13;15.57;;;0.00;99.90;;;;;;4411274;32;20169;-76
2020/12/03 02:07:50;;;;;;;37.60;16.13;;;0.00;99.90;;;;;;4409513;32;20193;-76
2020/12/03 02:10:18;;;;;;;36.23;15.30;;;0.00;99.90;;;;;;4410032;32;20208;-76
2020/12/03 02:12:45;;;;;;;35.40;16.47;;;0.10;99.90;;;;;;4409468;32;20208;-77
2020/12/03 02:15:13;;;;;;;38.40;16.40;;;0.20;99.90;;;;;;4411137;32;20201;-77
2020/12/03 02:17:40;;;;;;;40.00;17.47;;;0.20;99.90;;;;;;4409377;32;20707;-78
2020/12/03 02:20:11;;;;;;;35.70;16.63;;;0.10;99.90;;;;;;4409952;32;20155;-78
2020/12/03 02:22:39;;;;;;;41.20;17.23;;;0.20;99.90;;;;;;4411107;32;20201;-77
2020/12/03 02:25:06;;;;;;;41.10;18.37;;;0.10;99.90;;;;;;4410981;32;20151;-79
2020/12/03 02:27:33;;;;;;;43.37;18.77;;;0.10;99.90;;;;;;4439136;32;20196;-79
2020/12/03 02:29:59;;;;;;;46.43;20.77;;;0.10;99.90;;;;;;4443822;32;20189;-77
2020/12/03 02:32:25;;;;;;;47.33;21.40;;;0.20;99.90;;;;;;4443499;32;20176;-77
2020/12/03 02:34:52;;;;;;;45.87;20.00;;;0.30;99.90;;;;;;4443564;32;20222;-77
2020/12/03 02:37:18;;;;;;;42.07;19.50;;;0.20;99.90;;;;;;4442173;32;20139;-76
2020/12/03 02:39:45;;;;;;;38.40;19.60;;;0.20;99.90;;;;;;4442026;32;20169;-78
2020/12/03 02:42:14;;;;;;;43.73;20.13;;;0.10;99.90;;;;;;4443388;32;20198;-78
2020/12/03 02:44:46;;;;;;;42.33;18.83;;;0.10;99.90;;;;;;4443454;32;20146;-78
2020/12/03 02:47:14;;;;;;;44.27;19.87;;;0.10;99.90;;;;;;4441819;32;20416;-77
2020/12/03 02:49:41;;;;;;;44.23;20.37;;;0.20;99.90;;;;;;4440958;32;20169;-77
2020/12/03 02:52:13;;;;;;;47.00;20.43;;;0.30;99.90;;;;;;4440419;32;20448;-77
2020/12/03 02:54:40;;;;;;;46.97;20.30;;;0.30;99.90;;;;;;4442016;32;20433;-77
2020/12/03 02:57:08;;;;;;;44.67;20.23;;;0.30;99.90;;;;;;4441959;32;20161;-77
2020/12/03 02:59:34;;;;;;;45.80;21.13;;;0.30;99.90;;;;;;4441910;32;20135;-77
2020/12/03 03:02:01;;;;;;;44.90;20.63;;;0.20;99.90;;;;;;4442181;32;20139;-77
2020/12/03 03:04:27;;;;;;;45.43;20.80;;;0.30;99.90;;;;;;4441796;32;20135;-77
2020/12/03 03:06:54;;;;;;;42.57;19.80;;;0.40;99.90;;;;;;4443306;32;20155;-77
2020/12/03 03:09:21;;;;;;;40.90;18.63;;;0.30;99.90;;;;;;4441948;32;20483;-77
2020/12/03 03:11:48;;;;;;;39.13;18.17;;;0.30;99.90;;;;;;4443236;32;20146;-77
2020/12/03 03:14:16;;;;;;;36.17;18.07;;;0.30;99.90;;;;;;4441132;32;20227;-77
2020/12/03 03:16:43;;;;;;;37.50;18.20;;;0.20;99.90;;;;;;4443298;32;20147;-76
2020/12/03 03:19:13;;;;;;;38.97;18.60;;;0.20;99.90;;;;;;4441222;32;20408;-76
2020/12/03 03:21:39;;;;;;;37.47;18.10;;;0.20;99.90;;;;;;4441783;32;20179;-76
2020/12/03 03:24:06;;;;;;;45.97;20.30;;;0.30;99.90;;;;;;4442581;32;20191;-76
2020/12/03 03:26:32;;;;;;;44.20;20.17;;;0.20;99.90;;;;;;4441607;32;20540;-76
2020/12/03 03:28:58;;;;;;;41.07;19.97;;;0.10;99.90;;;;;;4441504;32;20488;-76
2020/12/03 03:31:25;;;;;;;45.67;21.30;;;0.10;99.90;;;;;;4440917;32;20166;-76
2020/12/03 03:33:51;;;;;;;41.77;19.70;;;0.20;99.90;;;;;;4441453;32;20134;-75
2020/12/03 03:36:18;;;;;;;41.77;19.50;;;0.20;99.90;;;;;;4441413;32;20184;-76
2020/12/03 03:38:44;;;;;;;42.10;20.03;;;0.10;99.90;;;;;;4441894;32;20138;-76
2020/12/03 03:41:11;;;;;;;40.90;19.03;;;0.20;99.90;;;;;;4440894;32;20161;-76
2020/12/03 03:43:38;;;;;;;41.20;19.33;;;0.10;99.90;;;;;;4441334;32;20169;-76
2020/12/03 03:46:05;;;;;;;37.83;19.20;;;0.10;99.90;;;;;;4441314;32;20139;-76
2020/12/03 03:48:31;;;;;;;41.77;20.43;;;0.10;99.90;;;;;;4441326;32;20166;-76
2020/12/03 03:50:58;;;;;;;39.70;18.93;;;0.10;99.90;;;;;;4442616;32;20202;-76
2020/12/03 03:53:25;;;;;;;42.07;19.87;;;0.10;99.90;;;;;;4442234;32;20191;-76
2020/12/03 03:55:51;;;;;;;41.07;20.20;;;0.10;99.90;;;;;;4441230;32;20158;-75
2020/12/03 03:58:19;;;;;;;41.50;19.70;;;0.10;99.90;;;;;;4442637;32;20199;-75
2020/12/03 04:00:47;;;;;;;38.77;19.37;;;0.20;99.90;;;;;;4441137;32;20195;-75
2020/12/03 04:03:16;;;;;;;40.33;19.23;;;0.10;99.90;;;;;;4440014;32;20142;-75
2020/12/03 04:05:47;;;;;;;40.77;19.63;;;0.10;99.90;;;;;;4441059;32;20441;-75
2020/12/03 04:08:15;;;;;;;38.90;19.03;;;0.10;99.90;;;;;;4441336;32;20173;-75
2020/12/03 04:10:43;;;;;;;40.60;19.93;;;0.10;99.90;;;;;;4440874;32;20192;-75
2020/12/03 04:13:09;;;;;;;38.90;19.50;;;0.00;99.90;;;;;;4441034;32;20249;-76
2020/12/03 04:15:36;;;;;;;38.73;18.70;;;0.10;99.90;;;;;;4440907;32;20150;-76
2020/12/03 04:18:04;;;;;;;42.60;20.10;;;0.00;99.90;;;;;;4441203;32;20180;-76
2020/12/03 04:20:30;;;;;;;39.73;18.53;;;0.10;99.90;;;;;;4440905;32;20134;-76
2020/12/03 04:22:56;;;;;;;36.63;17.53;;;0.10;99.90;;;;;;4440942;32;20161;-76
2020/12/03 04:25:23;;;;;;;33.60;16.40;;;0.00;99.90;;;;;;4440668;32;20456;-76
2020/12/03 04:27:50;;;;;;;36.70;17.27;;;0.00;99.90;;;;;;4440615;32;20217;-76
2020/12/03 04:30:16;;;;;;;36.13;16.00;;;-0.10;99.90;;;;;;4442185;32;20158;-76
2020/12/03 04:32:42;;;;;;;34.87;16.10;;;-0.10;99.90;;;;;;4440562;32;20201;-76
2020/12/03 04:35:10;;;;;;;35.50;15.90;;;-0.10;99.90;;;;;;4442070;32;20634;-77
2020/12/03 04:37:37;;;;;;;34.33;15.77;;;-0.10;99.90;;;;;;4440802;32;20157;-77
2020/12/03 04:40:08;;;;;;;31.80;14.73;;;-0.10;99.90;;;;;;4442074;32;20183;-77
2020/12/03 04:42:36;;;;;;;32.37;14.93;;;-0.10;99.90;;;;;;4440544;32;20448;-77
2020/12/03 04:45:22;;;;;;;34.93;16.23;;;-0.10;99.90;;;;;;4441960;32;20215;-77
2020/12/03 04:48:04;;;;;;;34.13;15.43;;;0.00;99.90;;;;;;4440084;32;20181;-77
2020/12/03 04:51:00;;;;;;;33.00;15.17;;;0.00;99.90;;;;;;4441434;32;20142;-77
2020/12/03 04:53:54;;;;;;;31.67;15.00;;;0.00;99.90;;;;;;4440368;32;20130;-76
2020/12/03 04:57:18;;;;;;;31.37;15.00;;;0.00;99.90;;;;;;4440122;32;20139;-77
2020/12/03 05:00:01;;;;;;;33.63;15.37;;;0.00;99.90;;;;;;4405926;32;20200;-76
2020/12/03 05:02:52;;;;;;;34.27;14.93;;;0.00;99.90;;;;;;4408696;32;20433;-77
2020/12/03 05:05:34;;;;;;;34.00;15.80;;;-0.10;99.90;;;;;;4407891;32;20154;-76
2020/12/03 05:08:07;;;;;;;31.73;15.13;;;-0.10;99.90;;;;;;4409271;32;20207;-76
2020/12/03 05:10:47;;;;;;;36.67;16.03;;;-0.10;99.90;;;;;;4393341;32;20153;-77
2020/12/03 05:13:24;;;;;;;34.80;14.90;;;-0.10;99.90;;;;;;4392155;32;20677;-77
2020/12/03 05:15:56;;;;;;;32.00;14.50;;;-0.20;99.90;;;;;;4392133;32;20203;-77
2020/12/03 05:19:02;;;;;;;35.37;16.10;;;-0.10;99.90;;;;;;4392548;32;20172;-77
2020/12/03 05:21:31;;;;;;;33.00;15.27;;;-0.20;99.90;;;;;;4332700;33;20161;-76
2020/12/03 05:23:58;;;;;;;30.90;15.17;;;-0.20;99.90;;;;;;4332828;33;20199;-77
2020/12/03 05:26:28;;;;;;;34.10;14.90;;;-0.20;99.90;;;;;;4334354;33;20149;-76
2020/12/03 05:29:04;;;;;;;30.47;14.80;;;-0.10;99.90;;;;;;4332324;33;20179;-75
2020/12/03 05:31:35;;;;;;;30.73;15.07;;;0.00;99.90;;;;;;4347148;33;20160;-77
2020/12/03 05:34:18;;;;;;;32.93;15.53;;;0.00;99.90;;;;;;4346910;33;20171;-76
2020/12/03 05:36:56;;;;;;;30.80;14.40;;;-0.10;99.90;;;;;;4346805;33;20152;-76
2020/12/03 05:39:26;;;;;;;29.10;14.77;;;-0.10;99.90;;;;;;4347507;33;20156;-76
2020/12/03 05:41:59;;;;;;;29.57;14.87;;;-0.10;99.90;;;;;;4347090;33;20147;-77
2020/12/03 05:44:42;;;;;;;31.80;14.00;;;-0.20;99.90;;;;;;4348693;33;20144;-77
2020/12/03 05:47:24;;;;;;;31.63;13.93;;;-0.20;99.90;;;;;;4347066;33;20224;-77
2020/12/03 05:49:58;;;;;;;32.33;14.87;;;-0.30;99.90;;;;;;4347206;33;20148;-77
2020/12/03 05:52:26;;;;;;;30.70;14.13;;;-0.40;99.90;;;;;;4351034;33;20228;-77
2020/12/03 05:55:06;;;;;;;31.30;14.60;;;-0.40;99.90;;;;;;4346902;33;20151;-76
2020/12/03 05:57:38;;;;;;;30.37;13.50;;;-0.50;99.90;;;;;;4357352;32;20167;-77
2020/12/03 06:00:12;;;;;;;34.07;14.90;;;-0.60;99.90;;;;;;4408303;32;20162;-77
2020/12/03 06:03:09;;;;;;;29.43;13.90;;;-0.60;99.90;;;;;;4409302;32;20164;-76
2020/12/03 06:06:07;;;;;;;28.63;13.70;;;-0.60;99.90;;;;;;4410876;32;20134;-76
2020/12/03 06:09:11;;;;;;;31.93;14.30;;;-0.70;99.90;;;;;;4409099;32;20420;-76
2020/12/03 06:11:46;;;;;;;30.23;13.60;;;-0.70;99.90;;;;;;4408893;32;20146;-76
2020/12/03 06:14:13;;;;;;;28.27;13.40;;;-0.70;99.90;;;;;;4408999;32;20178;-76
2020/12/03 06:16:58;;;;;;;33.17;15.40;;;-0.80;99.90;;;;;;4409020;32;20166;-76
2020/12/03 06:19:45;;;;;;;30.63;14.50;;;-0.90;99.90;;;;;;4409246;32;20194;-76
2020/12/03 06:22:37;;;;;;;30.03;14.03;;;-0.90;99.90;;;;;;4409045;32;20389;-76
2020/12/03 06:25:21;;;;;;;30.63;14.30;;;-0.90;99.90;;;;;;4410178;32;20199;-76
2020/12/03 06:28:30;;;;;;;34.53;14.63;;;-0.90;99.90;;;;;;4417159;32;20177;-77
2020/12/03 06:31:10;;;;;;;31.47;13.93;;;-1.00;99.90;;;;;;4438189;32;20231;-76
2020/12/03 06:33:44;;;;;;;29.83;14.30;;;-1.00;99.90;;;;;;4439598;32;20153;-76
2020/12/03 06:36:22;;;;;;;32.60;14.33;;;-1.00;99.90;;;;;;4440908;32;20196;-76
2020/12/03 06:39:23;;;;;;;29.83;13.77;;;-1.00;99.90;;;;;;4439804;32;20156;-76
2020/12/03 06:42:55;;;;;;;34.73;13.67;;;-1.00;99.90;;;;;;4439306;32;20248;-76
2020/12/03 06:45:31;;;;;;;31.57;13.73;;;-1.00;99.90;;;;;;4346835;33;20415;-75
2020/12/03 06:48:25;;;;;;;34.63;13.93;;;-1.00;99.90;;;;;;4348249;33;20179;-76
2020/12/03 06:51:00;;;;;;;31.07;14.07;;;-1.10;99.90;;;;;;4349152;33;20152;-76
2020/12/03 06:53:44;;;;;;;31.73;14.57;;;-1.20;99.90;;;;;;4349895;33;20152;-76
2020/12/03 06:56:26;;;;;;;35.30;14.70;;;-1.10;99.90;;;;;;4349380;33;20589;-76
2020/12/03 06:59:00;;;;;;;30.00;13.83;;;-1.10;99.90;;;;;;4349282;33;20179;-76
2020/12/03 07:01:32;;;;;;;32.10;14.30;;;-1.10;99.90;;;;;;4350750;33;20144;-76
2020/12/03 07:04:20;;;;;;;31.93;14.00;;;-1.10;99.90;;;;;;4350639;33;20160;-76
2020/12/03 07:07:08;;;;;;;33.23;14.03;;;-1.10;99.90;;;;;;4349345;33;20163;-77
2020/12/03 07:09:40;;;;;;;35.77;15.43;;;-1.10;99.90;;;;;;4349354;33;20682;-77
2020/12/03 07:12:14;;;;;;;35.13;15.10;;;-1.10;99.90;;;;;;4349884;33;20160;-77
2020/12/03 07:14:49;;;;;;;31.00;14.10;;;-1.10;99.90;;;;;;4350391;33;20166;-77
2020/12/03 07:17:55;;;;;;;32.70;14.80;;;-1.10;99.90;;;;;;4348806;33;20174;-77
2020/12/03 07:20:50;;;;;;;34.07;14.83;;;-1.10;99.90;;;;;;4393539;32;20519;-77
2020/12/03 07:23:30;;;;;;;35.50;15.00;;;-1.00;99.90;;;;;;4443160;32;20143;-77
2020/12/03 07:25:58;;;;;;;34.77;14.60;;;-1.10;99.90;;;;;;4443132;32;20183;-76
2020/12/03 07:28:35;;;;;;;31.97;14.70;;;-1.00;99.90;;;;;;4441375;32;20163;-76
2020/12/03 07:31:13;;;;;;;32.73;15.43;;;-1.00;99.90;;;;;;4441183;32;20165;-76
2020/12/03 07:33:43;;;;;;;33.97;15.33;;;-0.90;99.90;;;;;;4443165;32;20191;-76
2020/12/03 07:36:30;;;;;;;35.90;15.37;;;-0.90;99.90;;;;;;4441322;32;20145;-76
2020/12/03 07:39:01;;;;;;;39.47;15.60;;;-0.90;99.90;;;;;;4440944;32;20465;-76
2020/12/03 07:41:38;;;;;;;38.63;16.23;;;-0.90;99.90;;;;;;4441142;32;20159;-76
2020/12/03 07:44:16;;;;;;;31.97;15.00;;;-0.70;99.90;;;;;;4442851;32;20150;-77
2020/12/03 07:46:45;;;;;;;36.53;14.77;;;-0.60;99.90;;;;;;4442747;32;20160;-77
2020/12/03 07:49:42;;;;;;;34.90;15.20;;;-0.40;99.90;;;;;;4442160;32;20147;-76
2020/12/03 07:52:29;;;;;;;37.40;15.20;;;-0.30;99.90;;;;;;4440565;32;20150;-76
2020/12/03 07:55:21;;;;;;;32.90;14.93;;;0.00;99.90;;;;;;4440702;32;20166;-75
2020/12/03 07:57:50;;;;;;;36.77;16.03;;;0.00;99.90;;;;;;4440808;32;20144;-75
2020/12/03 08:00:42;;;;;;;32.57;14.73;;;0.30;99.90;;;;;;4441184;32;20200;-76
2020/12/03 08:03:09;;;;;;;33.73;15.60;;;0.30;99.90;;;;;;4440805;32;20196;-75
2020/12/03 08:06:00;;;;;;;36.40;15.60;;;0.30;99.90;;;;;;4441533;32;20138;-76
2020/12/03 08:08:28;;;;;;;34.87;15.70;;;0.50;99.90;;;;;;4440691;32;20146;-76
2020/12/03 08:10:55;;;;;;;35.57;15.63;;;0.60;99.90;;;;;;4440335;32;20170;-76
2020/12/03 08:13:37;;;;;;;34.80;15.80;;;0.60;99.90;;;;;;4440587;32;20135;-76
2020/12/03 08:16:06;;;;;;;32.40;14.47;;;0.70;99.90;;;;;;4442265;32;20139;-76
2020/12/03 08:18:57;;;;;;;34.83;15.30;;;0.70;99.90;;;;;;4441859;32;20145;-76
2020/12/03 08:21:37;;;;;;;32.73;15.20;;;0.70;99.90;;;;;;4442156;32;20143;-76
2020/12/03 08:24:06;;;;;;;32.07;15.30;;;0.80;99.90;;;;;;4440332;32;20170;-76
2020/12/03 08:26:33;;;;;;;32.87;15.40;;;0.90;99.90;;;;;;4440814;32;20219;-76
2020/12/03 08:29:00;;;;;;;31.40;14.93;;;0.90;99.90;;;;;;4439964;32;20190;-76
2020/12/03 08:31:26;;;;;;;35.63;15.43;;;1.00;99.90;;;;;;4439993;32;20398;-75
2020/12/03 08:33:53;;;;;;;31.93;15.73;;;1.10;99.90;;;;;;4440309;32;20179;-75
2020/12/03 08:36:22;;;;;;;32.70;15.17;;;0.80;99.90;;;;;;4440000;32;20574;-76
2020/12/03 08:38:53;;;;;;;36.27;15.90;;;0.80;99.90;;;;;;4439940;32;20147;-76
2020/12/03 08:41:26;;;;;;;34.03;15.80;;;0.60;99.90;;;;;;4440945;32;20178;-75
2020/12/03 08:43:59;;;;;;;33.27;16.30;;;0.30;99.90;;;;;;4440152;32;20198;-75
2020/12/03 08:46:33;;;;;;;35.87;16.07;;;0.20;99.90;;;;;;4441903;32;20452;-75
2020/12/03 08:48:59;;;;;;;36.57;15.87;;;0.20;99.90;;;;;;4440243;32;20146;-76
2020/12/03 08:51:26;;;;;;;33.53;15.83;;;0.30;99.90;;;;;;4440152;32;20150;-75
2020/12/03 08:53:53;;;;;;;38.70;16.17;;;0.30;99.90;;;;;;4439754;32;20517;-75
2020/12/03 08:56:35;;;;;;;36.23;15.90;;;0.30;99.90;;;;;;4440340;32;20192;-75
2020/12/03 08:59:07;;;;;;;38.93;17.10;;;0.30;99.90;;;;;;4440534;32;20143;-75
2020/12/03 09:01:42;;;;;;;35.80;15.47;;;0.20;99.90;;;;;;4441715;32;20135;-75
2020/12/03 09:04:10;;;;;;;36.33;16.60;;;0.20;99.90;;;;;;4441485;32;20134;-76
2020/12/03 09:06:46;;;;;;;36.10;16.47;;;0.20;99.90;;;;;;4440036;32;20160;-76
2020/12/03 09:09:17;;;;;;;36.13;16.70;;;0.20;99.90;;;;;;4439213;32;20229;-76
2020/12/03 09:11:46;;;;;;;37.07;16.13;;;0.20;99.90;;;;;;4440799;32;20154;-76
2020/12/03 09:14:12;;;;;;;36.73;17.00;;;0.10;99.90;;;;;;4439663;32;20302;-77
2020/12/03 09:16:42;;;;;;;40.23;16.73;;;0.20;99.90;;;;;;4439656;32;20143;-75
2020/12/03 09:19:09;;;;;;;37.97;17.23;;;0.20;99.90;;;;;;4439655;32;20207;-74
2020/12/03 09:21:38;;;;;;;34.97;16.70;;;0.30;99.90;;;;;;4439631;32;20150;-75
2020/12/03 09:24:05;;;;;;;39.60;16.97;;;0.40;99.90;;;;;;4439536;32;20396;-76
2020/12/03 09:26:33;;;;;;;37.70;17.10;;;0.40;99.90;;;;;;4439727;32;20229;-76
2020/12/03 09:29:02;;;;;;;38.37;17.17;;;0.30;99.90;;;;;;4439464;32;20192;-76
2020/12/03 09:31:35;;;;;;;38.67;17.33;;;0.40;99.90;;;;;;4439469;32;20177;-76
2020/12/03 09:34:03;;;;;;;39.03;18.40;;;0.40;99.90;;;;;;4439482;32;20200;-76
2020/12/03 09:36:33;;;;;;;38.20;18.30;;;0.40;99.90;;;;;;4440716;32;20189;-73
2020/12/03 09:39:01;;;;;;;43.10;19.83;;;0.60;99.90;;;;;;4439601;32;20201;-74
2020/12/03 09:41:31;;;;;;;44.27;19.37;;;0.70;99.90;;;;;;4440988;32;20150;-75
2020/12/03 09:44:02;;;;;;;41.33;18.73;;;0.80;99.90;;;;;;4439414;32;20159;-75
2020/12/03 09:46:32;;;;;;;42.73;19.23;;;0.90;99.90;;;;;;4422532;32;20159;-76
2020/12/03 09:49:00;;;;;;;43.67;19.47;;;0.90;99.90;;;;;;4430890;32;20147;-77
2020/12/03 09:51:26;;;;;;;40.97;18.50;;;0.90;99.90;;;;;;4439435;32;20173;-75
2020/12/03 09:53:54;;;;;;;40.37;19.33;;;0.90;99.90;;;;;;4439023;32;20206;-73
2020/12/03 09:56:21;;;;;;;42.73;19.63;;;0.80;99.90;;;;;;4439174;32;20204;-74
2020/12/03 09:58:57;;;;;;;43.73;19.80;;;0.70;99.90;;;;;;4440546;32;20480;-75
2020/12/03 10:01:38;;;;;;;44.30;19.60;;;0.70;99.90;;;;;;4438178;32;20484;-73
2020/12/03 10:04:34;;;;;;;42.97;19.87;;;0.60;99.90;;;;;;4427903;32;20457;-75
2020/12/03 10:07:19;;;;;;;40.77;19.00;;;0.40;99.90;;;;;;4439658;32;20218;-76
2020/12/03 10:10:10;;;;;;;48.97;20.57;;;0.40;99.90;;;;;;4440691;32;20203;-76
2020/12/03 10:12:44;;;;;;;46.67;20.17;;;0.30;99.90;;;;;;4440623;32;20155;-73
2020/12/03 10:15:33;;;;;;;45.17;19.83;;;0.20;99.90;;;;;;4440572;32;20237;-75
2020/12/03 10:18:07;;;;;;;46.17;19.87;;;0.30;99.90;;;;;;4428592;32;20189;-73
2020/12/03 10:20:36;;;;;;;46.03;20.67;;;0.40;99.90;;;;;;4439132;32;20162;-75
2020/12/03 10:23:16;;;;;;;44.57;20.50;;;0.40;99.90;;;;;;4441625;32;20411;-75
2020/12/03 10:26:10;;;;;;;43.43;20.23;;;0.60;99.90;;;;;;4442252;32;20202;-74
2020/12/03 10:28:53;;;;;;;45.93;20.33;;;0.60;99.90;;;;;;4442315;32;20162;-72
2020/12/03 10:31:34;;;;;;;43.13;19.90;;;0.60;99.90;;;;;;4442789;32;20146;-71
2020/12/03 10:34:03;;;;;;;43.33;20.10;;;0.70;99.90;;;;;;4442061;32;20186;-74
2020/12/03 10:36:45;;;;;;;49.40;21.57;;;0.80;99.90;;;;;;4443526;32;20193;-73
2020/12/03 10:39:14;;;;;;;48.70;21.43;;;0.80;99.90;;;;;;4443558;32;20142;-73
2020/12/03 10:41:42;;;;;;;49.73;21.77;;;0.90;99.90;;;;;;4441845;32;20492;-73
2020/12/03 10:44:15;;;;;;;45.63;21.13;;;0.80;99.90;;;;;;4443357;32;20142;-74
2020/12/03 10:46:48;;;;;;;46.30;20.17;;;0.80;99.90;;;;;;4441962;32;20142;-73
2020/12/03 10:49:17;;;;;;;45.70;20.90;;;0.80;99.90;;;;;;4443304;32;20149;-70
2020/12/03 10:51:44;;;;;;;45.73;20.60;;;0.80;99.90;;;;;;4440783;32;20173;-71
2020/12/03 10:54:17;;;;;;;46.70;21.57;;;0.90;99.90;;;;;;4441814;32;20185;-70
2020/12/03 10:56:44;;;;;;;43.70;20.07;;;1.00;99.90;;;;;;4443028;32;20143;-71
2020/12/03 10:59:32;;;;;;;46.90;20.57;;;1.10;99.90;;;;;;4443238;32;20197;-69
2020/12/03 11:02:00;;;;;;;45.00;21.33;;;1.20;99.40;;;;;;4431140;32;20214;-68
2020/12/03 11:04:27;;;;;;;45.70;21.30;;;1.20;99.30;;;;;;4441495;32;20168;-70
2020/12/03 11:06:56;;;;;;;52.73;21.47;;;1.30;98.80;;;;;;4441862;32;20155;-70
2020/12/03 11:09:25;;;;;;;47.80;20.80;;;1.30;99.00;;;;;;4441563;32;20165;-68
2020/12/03 11:11:51;;;;;;;42.83;20.03;;;1.40;99.20;;;;;;4442825;32;20172;-70
2020/12/03 11:14:17;;;;;;;47.33;20.73;;;1.50;99.10;;;;;;4441386;32;20173;-69
2020/12/03 11:16:52;;;;;;;45.07;19.73;;;1.50;98.90;;;;;;4441517;32;20146;-70
2020/12/03 11:19:39;;;;;;;43.00;19.77;;;1.50;98.80;;;;;;4429252;32;20151;-71
2020/12/03 11:22:27;;;;;;;45.07;20.37;;;1.50;98.60;;;;;;4441244;32;20150;-70
2020/12/03 11:25:05;;;;;;;41.87;20.13;;;1.50;98.30;;;;;;4442627;32;20425;-69
2020/12/03 11:27:32;;;;;;;48.20;20.70;;;1.50;98.30;;;;;;4441052;32;20213;-69
2020/12/03 11:30:14;;;;;;;44.27;19.50;;;1.60;98.50;;;;;;4442892;32;20168;-73
2020/12/03 11:32:47;;;;;;;44.67;20.13;;;2.00;98.00;;;;;;4442585;32;20487;-73
2020/12/03 11:35:24;;;;;;;45.27;20.17;;;2.50;96.00;;;;;;4439248;32;20205;-73
2020/12/03 11:37:53;;;;;;;45.73;20.67;;;2.80;94.80;;;;;;4438948;32;20216;-71
2020/12/03 11:40:27;;;;;;;43.30;19.70;;;3.10;93.80;;;;;;4439863;32;20146;-71
2020/12/03 11:43:08;;;;;;;44.03;19.97;;;3.50;93.00;;;;;;4433627;32;20155;-71
2020/12/03 11:48:37;;;;;;;43.50;20.40;;;3.80;91.00;;;;;;4442427;32;20162;-71
2020/12/03 11:51:04;;;;;;;39.03;18.97;;;3.80;90.40;;;;;;4440886;32;20146;-71
2020/12/03 11:53:31;;;;;;;47.00;20.40;;;3.70;90.60;;;;;;4442280;32;20194;-72
2020/12/03 11:55:58;;;;;;;41.63;19.30;;;3.50;90.70;;;;;;4442321;32;20143;-73
2020/12/03 11:58:26;;;;;;;42.37;19.87;;;3.10;91.40;;;;;;4442316;32;20556;-71
2020/12/03 12:01:12;;;;;;;44.07;20.13;;;3.00;91.80;;;;;;4440763;32;20188;-72
2020/12/03 12:03:44;;;;;;;45.13;19.23;;;2.90;92.20;;;;;;4440968;32;20147;-71
2020/12/03 12:06:20;;;;;;;43.70;20.07;;;2.50;92.70;;;;;;4440629;32;20154;-70
2020/12/03 12:11:40;;;;;;;47.97;21.00;;;2.30;93.70;;;;;;4422161;32;20170;-70
2020/12/03 12:14:07;;;;;;;44.37;19.90;;;2.40;93.80;;;;;;4412143;32;20150;-70
2020/12/03 12:16:33;;;;;;;44.27;20.63;;;2.40;93.90;;;;;;4416868;32;20298;-70
2020/12/03 12:19:01;;;;;;;44.97;20.03;;;2.30;94.20;;;;;;4417827;32;20198;-72
2020/12/03 12:21:30;;;;;;;48.30;20.43;;;2.20;94.40;;;;;;4419942;32;20154;-72
2020/12/03 12:23:56;;;;;;;43.40;19.37;;;2.20;94.60;;;;;;4407866;32;20193;-72
2020/12/03 12:26:23;;;;;;;45.17;19.93;;;2.10;94.70;;;;;;4414641;32;20614;-72
2020/12/03 12:28:50;;;;;;;46.87;20.13;;;2.10;94.80;;;;;;4413546;32;20191;-71
2020/12/03 12:31:17;;;;;;;48.07;20.93;;;2.10;95.20;;;;;;4411042;32;20206;-71
2020/12/03 12:33:43;;;;;;;46.50;20.93;;;2.00;95.70;;;;;;4421224;32;20170;-71
2020/12/03 12:36:09;;;;;;;47.85;21.42;;;2.10;95.60;;;;;;4419668;32;20093;-71
2020/12/03 12:38:36;;;;;;;48.77;21.10;;;2.10;95.50;;;;;;4408985;32;20167;-71
2020/12/03 12:41:02;;;;;;;47.07;21.77;;;2.00;95.70;;;;;;4417050;32;20151;-70
2020/12/03 12:43:29;;;;;;;46.27;21.07;;;2.00;95.90;;;;;;4409734;32;20210;-73
2020/12/03 12:45:55;;;;;;;43.73;20.07;;;2.00;96.00;;;;;;4418739;32;20169;-71
2020/12/03 12:48:22;;;;;;;46.57;20.77;;;2.00;96.10;;;;;;4419580;32;20459;-71
2020/12/03 12:50:48;;;;;;;50.37;21.83;;;1.90;96.40;;;;;;4439943;32;20168;-71
2020/12/03 12:53:15;;;;;;;48.43;21.13;;;2.00;96.50;;;;;;4439826;32;20155;-72
2020/12/03 12:55:42;;;;;;;46.37;20.23;;;2.00;96.30;;;;;;4439954;32;20496;-72
2020/12/03 12:58:08;;;;;;;52.50;22.77;;;2.10;96.10;;;;;;4439327;32;20154;-70
2020/12/03 13:00:35;;;;;;;47.03;20.10;;;2.10;96.10;;;;;;4439892;32;20154;-71
2020/12/03 13:03:01;;;;;;;51.23;21.53;;;2.20;96.10;;;;;;4439782;32;20150;-71
2020/12/03 13:05:27;;;;;;;51.87;21.70;;;2.20;95.90;;;;;;4441056;32;20217;-73
2020/12/03 13:07:54;;;;;;;50.23;21.80;;;2.10;95.90;;;;;;4428581;32;20181;-74